sensor_id;sensor_type;location;lat;lon;timestamp;pressure;altitude;pressure_sealevel;temperature;humidity
24280;BME280;12395;42.808;23.408;2023-02-23T00:01:58;94724.84;;;4.38;100.00
24280;BME280;12395;42.808;23.408;2023-02-23T00:04:29;94720.97;;;4.26;100.00
24280;BME280;12395;42.808;23.408;2023-02-23T00:06:55;94727.97;;;4.34;100.00
24280;BME280;12395;42.808;23.408;2023-02-23T00:09:20;94733.03;;;4.35;100.00
24280;BME280;12395;42.808;23.408;2023-02-23T00:11:50;94731.06;;;4.37;100.00
24280;BME280;12395;42.808;23.408;2023-02-23T00:14:16;94738.09;;;4.37;100.00
24280;BME280;12395;42.808;23.408;2023-02-23T00:16:42;94721.22;;;4.17;100.00
24280;BME280;12395;42.808;23.408;2023-02-23T00:19:10;94733.50;;;4.16;100.00
24280;BME280;12395;42.808;23.408;2023-02-23T00:21:38;94737.72;;;4.17;100.00
24280;BME280;12395;42.808;23.408;2023-02-23T00:24:09;94737.28;;;4.14;100.00
24280;BME280;12395;42.808;23.408;2023-02-23T00:26:36;94739.44;;;4.02;100.00
24280;BME280;12395;42.808;23.408;2023-02-23T00:29:05;94747.56;;;4.15;100.00
24280;BME280;12395;42.808;23.408;2023-02-23T00:31:31;94736.97;;;4.09;100.00
24280;BME280;12395;42.808;23.408;2023-02-23T00:33:59;94743.66;;;4.11;100.00
24280;BME280;12395;42.808;23.408;2023-02-23T00:36:30;94746.00;;;4.06;100.00
24280;BME280;12395;42.808;23.408;2023-02-23T00:38:58;94742.38;;;4.07;100.00
24280;BME280;12395;42.808;23.408;2023-02-23T00:41:25;94739.13;;;4.05;100.00
24280;BME280;12395;42.808;23.408;2023-02-23T00:43:57;94733.91;;;3.97;100.00
24280;BME280;12395;42.808;23.408;2023-02-23T00:46:25;94737.81;;;4.01;100.00
24280;BME280;12395;42.808;23.408;2023-02-23T00:48:55;94722.47;;;3.90;100.00
24280;BME280;12395;42.808;23.408;2023-02-23T00:51:23;94725.91;;;3.90;100.00
24280;BME280;12395;42.808;23.408;2023-02-23T00:53:54;94740.88;;;3.82;100.00
24280;BME280;12395;42.808;23.408;2023-02-23T00:56:20;94720.00;;;3.58;100.00
24280;BME280;12395;42.808;23.408;2023-02-23T00:58:46;94735.38;;;3.61;100.00
24280;BME280;12395;42.808;23.408;2023-02-23T01:01:12;94731.75;;;3.62;100.00
24280;BME280;12395;42.808;23.408;2023-02-23T01:03:40;94743.69;;;3.72;100.00
24280;BME280;12395;42.808;23.408;2023-02-23T01:06:08;94741.22;;;3.71;100.00
24280;BME280;12395;42.808;23.408;2023-02-23T01:08:37;94743.53;;;3.66;100.00
24280;BME280;12395;42.808;23.408;2023-02-23T01:11:15;94750.47;;;3.59;100.00
24280;BME280;12395;42.808;23.408;2023-02-23T01:13:43;94730.00;;;3.54;100.00
24280;BME280;12395;42.808;23.408;2023-02-23T01:16:14;94723.63;;;3.57;100.00
24280;BME280;12395;42.808;23.408;2023-02-23T01:18:41;94718.69;;;3.54;100.00
24280;BME280;12395;42.808;23.408;2023-02-23T01:21:21;94735.69;;;3.66;100.00
24280;BME280;12395;42.808;23.408;2023-02-23T01:23:47;94737.78;;;3.70;100.00
24280;BME280;12395;42.808;23.408;2023-02-23T01:26:17;94738.44;;;3.72;100.00
24280;BME280;12395;42.808;23.408;2023-02-23T01:28:47;94732.41;;;3.72;100.00
24280;BME280;12395;42.808;23.408;2023-02-23T01:31:13;94730.75;;;3.71;100.00
24280;BME280;12395;42.808;23.408;2023-02-23T01:33:39;94732.22;;;3.73;100.00
24280;BME280;12395;42.808;23.408;2023-02-23T01:36:05;94728.13;;;3.71;100.00
24280;BME280;12395;42.808;23.408;2023-02-23T01:38:31;94715.06;;;3.63;100.00
24280;BME280;12395;42.808;23.408;2023-02-23T01:40:56;94728.84;;;3.57;100.00
24280;BME280;12395;42.808;23.408;2023-02-23T01:43:23;94738.16;;;3.59;100.00
24280;BME280;12395;42.808;23.408;2023-02-23T01:45:55;94737.34;;;3.59;100.00
24280;BME280;12395;42.808;23.408;2023-02-23T01:48:25;94732.47;;;3.48;100.00
24280;BME280;12395;42.808;23.408;2023-02-23T01:50:59;94727.75;;;3.43;100.00
24280;BME280;12395;42.808;23.408;2023-02-23T01:53:27;94723.00;;;3.39;100.00
24280;BME280;12395;42.808;23.408;2023-02-23T01:55:56;94726.44;;;3.39;100.00
24280;BME280;12395;42.808;23.408;2023-02-23T01:58:25;94726.63;;;3.30;100.00
24280;BME280;12395;42.808;23.408;2023-02-23T02:00:54;94727.28;;;3.24;100.00
24280;BME280;12395;42.808;23.408;2023-02-23T02:03:34;94722.06;;;3.24;100.00
24280;BME280;12395;42.808;23.408;2023-02-23T02:06:02;94729.41;;;3.28;100.00
24280;BME280;12395;42.808;23.408;2023-02-23T02:08:32;94733.81;;;3.28;100.00
24280;BME280;12395;42.808;23.408;2023-02-23T02:10:59;94720.75;;;3.20;100.00
24280;BME280;12395;42.808;23.408;2023-02-23T02:13:29;94714.69;;;3.19;100.00
24280;BME280;12395;42.808;23.408;2023-02-23T02:18:47;94704.72;;;3.31;100.00
24280;BME280;12395;42.808;23.408;2023-02-23T02:27:15;94714.31;;;3.38;100.00
24280;BME280;12395;42.808;23.408;2023-02-23T02:30:03;94724.94;;;3.45;100.00
24280;BME280;12395;42.808;23.408;2023-02-23T02:35:53;94720.75;;;3.36;100.00
24280;BME280;12395;42.808;23.408;2023-02-23T02:38:42;94719.09;;;3.35;100.00
24280;BME280;12395;42.808;23.408;2023-02-23T02:41:35;94730.03;;;3.38;100.00
24280;BME280;12395;42.808;23.408;2023-02-23T02:47:06;94717.59;;;3.40;100.00
24280;BME280;12395;42.808;23.408;2023-02-23T02:49:51;94737.09;;;3.38;100.00
24280;BME280;12395;42.808;23.408;2023-02-23T02:52:23;94728.91;;;3.33;100.00
24280;BME280;12395;42.808;23.408;2023-02-23T02:55:03;94726.66;;;3.22;100.00
24280;BME280;12395;42.808;23.408;2023-02-23T02:57:33;94719.78;;;3.12;100.00
24280;BME280;12395;42.808;23.408;2023-02-23T03:00:00;94727.84;;;3.03;100.00
24280;BME280;12395;42.808;23.408;2023-02-23T03:02:44;94715.06;;;3.08;100.00
24280;BME280;12395;42.808;23.408;2023-02-23T03:05:41;94723.72;;;3.08;100.00
24280;BME280;12395;42.808;23.408;2023-02-23T03:11:17;94719.47;;;3.16;100.00
24280;BME280;12395;42.808;23.408;2023-02-23T03:20:27;94726.38;;;3.00;100.00
24280;BME280;12395;42.808;23.408;2023-02-23T03:26:05;94729.31;;;3.05;100.00
24280;BME280;12395;42.808;23.408;2023-02-23T03:29:13;94718.19;;;2.95;100.00
24280;BME280;12395;42.808;23.408;2023-02-23T03:32:24;94729.97;;;2.91;100.00
24280;BME280;12395;42.808;23.408;2023-02-23T03:35:28;94727.50;;;2.74;100.00
24280;BME280;12395;42.808;23.408;2023-02-23T03:38:19;94739.78;;;2.65;100.00
24280;BME280;12395;42.808;23.408;2023-02-23T03:41:06;94728.84;;;2.62;100.00
24280;BME280;12395;42.808;23.408;2023-02-23T03:43:57;94737.84;;;2.67;100.00
24280;BME280;12395;42.808;23.408;2023-02-23T03:46:45;94738.97;;;2.65;100.00
24280;BME280;12395;42.808;23.408;2023-02-23T03:49:33;94739.28;;;2.62;100.00
24280;BME280;12395;42.808;23.408;2023-02-23T03:52:20;94750.91;;;2.67;100.00
24280;BME280;12395;42.808;23.408;2023-02-23T03:55:16;94737.50;;;2.62;100.00
24280;BME280;12395;42.808;23.408;2023-02-23T03:58:02;94746.66;;;2.66;100.00
24280;BME280;12395;42.808;23.408;2023-02-23T04:00:50;94747.97;;;2.70;100.00
24280;BME280;12395;42.808;23.408;2023-02-23T04:03:38;94745.34;;;2.70;100.00
24280;BME280;12395;42.808;23.408;2023-02-23T04:06:27;94738.66;;;2.52;100.00
24280;BME280;12395;42.808;23.408;2023-02-23T04:09:14;94743.34;;;2.48;100.00
24280;BME280;12395;42.808;23.408;2023-02-23T04:12:36;94754.81;;;2.55;100.00
24280;BME280;12395;42.808;23.408;2023-02-23T04:15:30;94747.31;;;2.60;100.00
24280;BME280;12395;42.808;23.408;2023-02-23T04:17:58;94745.84;;;2.58;100.00
24280;BME280;12395;42.808;23.408;2023-02-23T04:20:24;94752.19;;;2.63;100.00
24280;BME280;12395;42.808;23.408;2023-02-23T04:22:50;94733.25;;;2.45;100.00
24280;BME280;12395;42.808;23.408;2023-02-23T04:25:16;94755.13;;;2.44;100.00
24280;BME280;12395;42.808;23.408;2023-02-23T04:27:43;94736.66;;;2.21;100.00
24280;BME280;12395;42.808;23.408;2023-02-23T04:30:09;94740.09;;;2.22;100.00
24280;BME280;12395;42.808;23.408;2023-02-23T04:32:35;94736.94;;;2.18;100.00
24280;BME280;12395;42.808;23.408;2023-02-23T04:35:01;94736.47;;;2.07;100.00
24280;BME280;12395;42.808;23.408;2023-02-23T04:37:26;94746.25;;;2.05;100.00
24280;BME280;12395;42.808;23.408;2023-02-23T04:39:52;94740.84;;;2.06;100.00
24280;BME280;12395;42.808;23.408;2023-02-23T04:42:17;94750.47;;;2.06;100.00
24280;BME280;12395;42.808;23.408;2023-02-23T04:44:43;94743.25;;;1.84;100.00
24280;BME280;12395;42.808;23.408;2023-02-23T04:47:08;94755.78;;;1.80;100.00
24280;BME280;12395;42.808;23.408;2023-02-23T04:49:34;94739.28;;;1.80;100.00
24280;BME280;12395;42.808;23.408;2023-02-23T04:51:59;94746.47;;;1.78;100.00
24280;BME280;12395;42.808;23.408;2023-02-23T04:54:25;94740.94;;;1.81;100.00
24280;BME280;12395;42.808;23.408;2023-02-23T04:56:50;94744.84;;;1.77;100.00
24280;BME280;12395;42.808;23.408;2023-02-23T04:59:17;94748.28;;;1.77;100.00
24280;BME280;12395;42.808;23.408;2023-02-23T05:01:42;94746.28;;;1.71;100.00
24280;BME280;12395;42.808;23.408;2023-02-23T05:04:07;94759.19;;;1.73;100.00
24280;BME280;12395;42.808;23.408;2023-02-23T05:06:33;94748.72;;;1.65;100.00
24280;BME280;12395;42.808;23.408;2023-02-23T05:08:58;94757.09;;;1.76;100.00
24280;BME280;12395;42.808;23.408;2023-02-23T05:11:24;94745.50;;;1.71;100.00
24280;BME280;12395;42.808;23.408;2023-02-23T05:13:51;94745.88;;;1.84;100.00
24280;BME280;12395;42.808;23.408;2023-02-23T05:16:17;94760.56;;;1.93;100.00
24280;BME280;12395;42.808;23.408;2023-02-23T05:18:42;94761.41;;;2.01;100.00
24280;BME280;12395;42.808;23.408;2023-02-23T05:21:07;94761.59;;;2.08;100.00
24280;BME280;12395;42.808;23.408;2023-02-23T05:23:34;94761.28;;;2.03;100.00
24280;BME280;12395;42.808;23.408;2023-02-23T05:26:05;94770.09;;;2.10;100.00
24280;BME280;12395;42.808;23.408;2023-02-23T05:28:35;94764.25;;;2.16;100.00
24280;BME280;12395;42.808;23.408;2023-02-23T05:31:01;94764.91;;;2.18;100.00
24280;BME280;12395;42.808;23.408;2023-02-23T05:33:34;94766.69;;;2.09;100.00
24280;BME280;12395;42.808;23.408;2023-02-23T05:36:16;94769.13;;;2.11;100.00
24280;BME280;12395;42.808;23.408;2023-02-23T05:38:43;94769.13;;;2.19;100.00
24280;BME280;12395;42.808;23.408;2023-02-23T05:41:12;94774.38;;;2.27;100.00
24280;BME280;12395;42.808;23.408;2023-02-23T05:43:38;94774.88;;;2.30;100.00
24280;BME280;12395;42.808;23.408;2023-02-23T05:46:07;94778.66;;;2.36;100.00
24280;BME280;12395;42.808;23.408;2023-02-23T05:48:33;94787.16;;;2.38;100.00
24280;BME280;12395;42.808;23.408;2023-02-23T05:51:07;94790.41;;;2.48;100.00
24280;BME280;12395;42.808;23.408;2023-02-23T05:53:34;94776.88;;;2.45;100.00
24280;BME280;12395;42.808;23.408;2023-02-23T05:56:04;94801.72;;;2.57;100.00
24280;BME280;12395;42.808;23.408;2023-02-23T05:58:30;94793.22;;;2.55;100.00
24280;BME280;12395;42.808;23.408;2023-02-23T06:00:55;94799.25;;;2.55;100.00
24280;BME280;12395;42.808;23.408;2023-02-23T06:03:21;94812.03;;;2.66;100.00
24280;BME280;12395;42.808;23.408;2023-02-23T06:05:51;94814.47;;;2.68;100.00
24280;BME280;12395;42.808;23.408;2023-02-23T06:08:18;94808.75;;;2.64;100.00
24280;BME280;12395;42.808;23.408;2023-02-23T06:10:44;94820.22;;;2.71;100.00
24280;BME280;12395;42.808;23.408;2023-02-23T06:13:10;94827.72;;;2.82;100.00
24280;BME280;12395;42.808;23.408;2023-02-23T06:15:36;94816.66;;;2.88;100.00
24280;BME280;12395;42.808;23.408;2023-02-23T06:18:02;94790.81;;;2.77;100.00
24280;BME280;12395;42.808;23.408;2023-02-23T06:20:28;94827.94;;;3.05;100.00
24280;BME280;12395;42.808;23.408;2023-02-23T06:22:53;94807.16;;;3.03;100.00
24280;BME280;12395;42.808;23.408;2023-02-23T06:25:19;94816.66;;;3.21;100.00
24280;BME280;12395;42.808;23.408;2023-02-23T06:27:44;94838.03;;;3.40;100.00
24280;BME280;12395;42.808;23.408;2023-02-23T06:30:10;94817.91;;;3.41;100.00
24280;BME280;12395;42.808;23.408;2023-02-23T06:32:36;94829.53;;;3.46;100.00
24280;BME280;12395;42.808;23.408;2023-02-23T06:35:03;94833.63;;;3.57;100.00
24280;BME280;12395;42.808;23.408;2023-02-23T06:37:30;94838.50;;;3.76;100.00
24280;BME280;12395;42.808;23.408;2023-02-23T06:39:55;94824.38;;;3.77;100.00
24280;BME280;12395;42.808;23.408;2023-02-23T06:42:20;94836.00;;;3.90;100.00
24280;BME280;12395;42.808;23.408;2023-02-23T06:44:46;94832.84;;;4.03;100.00
24280;BME280;12395;42.808;23.408;2023-02-23T06:47:12;94838.53;;;4.15;100.00
24280;BME280;12395;42.808;23.408;2023-02-23T06:49:37;94829.81;;;4.22;100.00
24280;BME280;12395;42.808;23.408;2023-02-23T06:52:04;94842.16;;;4.44;100.00
24280;BME280;12395;42.808;23.408;2023-02-23T06:54:31;94829.97;;;4.51;100.00
24280;BME280;12395;42.808;23.408;2023-02-23T06:56:58;94833.50;;;4.66;100.00
24280;BME280;12395;42.808;23.408;2023-02-23T06:59:24;94827.41;;;4.74;100.00
24280;BME280;12395;42.808;23.408;2023-02-23T07:01:49;94828.63;;;4.86;100.00
24280;BME280;12395;42.808;23.408;2023-02-23T07:04:15;94841.19;;;4.99;100.00
24280;BME280;12395;42.808;23.408;2023-02-23T07:06:40;94842.69;;;5.16;100.00
24280;BME280;12395;42.808;23.408;2023-02-23T07:09:05;94824.09;;;5.25;100.00
24280;BME280;12395;42.808;23.408;2023-02-23T07:11:31;94821.56;;;5.32;100.00
24280;BME280;12395;42.808;23.408;2023-02-23T07:13:57;94825.91;;;5.39;100.00
24280;BME280;12395;42.808;23.408;2023-02-23T07:16:23;94838.44;;;5.52;100.00
24280;BME280;12395;42.808;23.408;2023-02-23T07:18:49;94831.16;;;5.62;100.00
24280;BME280;12395;42.808;23.408;2023-02-23T07:21:15;94837.78;;;5.73;100.00
24280;BME280;12395;42.808;23.408;2023-02-23T07:23:40;94827.59;;;5.70;100.00
24280;BME280;12395;42.808;23.408;2023-02-23T07:26:05;94830.00;;;5.79;100.00
24280;BME280;12395;42.808;23.408;2023-02-23T07:28:31;94833.84;;;5.91;100.00
24280;BME280;12395;42.808;23.408;2023-02-23T07:30:57;94839.53;;;6.09;98.48
24280;BME280;12395;42.808;23.408;2023-02-23T07:33:23;94848.34;;;6.16;97.92
24280;BME280;12395;42.808;23.408;2023-02-23T07:35:50;94846.25;;;6.27;97.04
24280;BME280;12395;42.808;23.408;2023-02-23T07:38:16;94836.00;;;6.32;96.42
24280;BME280;12395;42.808;23.408;2023-02-23T07:40:41;94829.38;;;6.36;94.56
24280;BME280;12395;42.808;23.408;2023-02-23T07:43:06;94848.41;;;6.52;93.82
24280;BME280;12395;42.808;23.408;2023-02-23T07:45:32;94825.91;;;6.50;91.63
24280;BME280;12395;42.808;23.408;2023-02-23T07:47:58;94834.59;;;6.65;90.87
24280;BME280;12395;42.808;23.408;2023-02-23T07:50:24;94834.59;;;6.65;89.92
24280;BME280;12395;42.808;23.408;2023-02-23T07:52:50;94842.56;;;6.71;89.06
24280;BME280;12395;42.808;23.408;2023-02-23T07:55:16;94843.56;;;6.70;88.78
24280;BME280;12395;42.808;23.408;2023-02-23T07:57:42;94843.63;;;6.77;88.27
24280;BME280;12395;42.808;23.408;2023-02-23T08:00:08;94826.19;;;6.76;87.94
24280;BME280;12395;42.808;23.408;2023-02-23T08:02:33;94829.47;;;6.78;88.44
24280;BME280;12395;42.808;23.408;2023-02-23T08:04:59;94845.59;;;6.89;87.14
24280;BME280;12395;42.808;23.408;2023-02-23T08:07:24;94829.53;;;6.84;87.11
24280;BME280;12395;42.808;23.408;2023-02-23T08:13:08;94829.50;;;6.99;86.62
24280;BME280;12395;42.808;23.408;2023-02-23T08:15:33;94829.56;;;7.06;86.54
24280;BME280;12395;42.808;23.408;2023-02-23T08:17:58;94816.84;;;7.09;85.72
24280;BME280;12395;42.808;23.408;2023-02-23T08:20:24;94826.47;;;7.23;85.73
24280;BME280;12395;42.808;23.408;2023-02-23T08:22:53;94830.88;;;7.37;85.69
24280;BME280;12395;42.808;23.408;2023-02-23T08:25:19;94838.03;;;7.43;85.35
24280;BME280;12395;42.808;23.408;2023-02-23T08:27:45;94840.31;;;7.53;85.33
24280;BME280;12395;42.808;23.408;2023-02-23T08:30:12;94846.91;;;7.63;85.25
24280;BME280;12395;42.808;23.408;2023-02-23T08:32:38;94835.56;;;7.63;84.71
24280;BME280;12395;42.808;23.408;2023-02-23T08:35:05;94846.78;;;7.71;84.65
24280;BME280;12395;42.808;23.408;2023-02-23T08:37:32;94832.97;;;7.69;84.67
24280;BME280;12395;42.808;23.408;2023-02-23T08:39:57;94842.41;;;7.85;83.39
24280;BME280;12395;42.808;23.408;2023-02-23T08:42:24;94823.16;;;7.85;83.73
24280;BME280;12395;42.808;23.408;2023-02-23T08:44:49;94831.13;;;7.98;83.45
24280;BME280;12395;42.808;23.408;2023-02-23T08:47:15;94849.56;;;8.19;81.89
24280;BME280;12395;42.808;23.408;2023-02-23T08:49:49;94837.97;;;8.20;81.25
24280;BME280;12395;42.808;23.408;2023-02-23T08:52:14;94841.31;;;8.28;81.77
24280;BME280;12395;42.808;23.408;2023-02-23T08:54:40;94843.81;;;8.43;81.32
24280;BME280;12395;42.808;23.408;2023-02-23T08:57:05;94841.66;;;8.53;80.95
24280;BME280;12395;42.808;23.408;2023-02-23T08:59:31;94841.06;;;8.64;79.74
24280;BME280;12395;42.808;23.408;2023-02-23T09:01:56;94837.06;;;8.68;79.43
24280;BME280;12395;42.808;23.408;2023-02-23T09:04:22;94830.97;;;8.74;79.01
24280;BME280;12395;42.808;23.408;2023-02-23T09:06:47;94825.88;;;8.79;78.51
24280;BME280;12395;42.808;23.408;2023-02-23T09:09:14;94832.88;;;8.93;78.62
24280;BME280;12395;42.808;23.408;2023-02-23T09:11:40;94837.97;;;9.08;78.36
24280;BME280;12395;42.808;23.408;2023-02-23T09:14:06;94834.31;;;9.15;77.84
24280;BME280;12395;42.808;23.408;2023-02-23T09:16:32;94826.84;;;9.25;77.58
24280;BME280;12395;42.808;23.408;2023-02-23T09:19:00;94825.81;;;9.33;77.04
24280;BME280;12395;42.808;23.408;2023-02-23T09:21:26;94837.84;;;9.49;76.89
24280;BME280;12395;42.808;23.408;2023-02-23T09:23:54;94831.53;;;9.50;75.60
24280;BME280;12395;42.808;23.408;2023-02-23T09:26:21;94835.63;;;9.59;74.98
24280;BME280;12395;42.808;23.408;2023-02-23T09:28:48;94813.63;;;9.65;76.04
24280;BME280;12395;42.808;23.408;2023-02-23T09:31:16;94828.69;;;9.84;74.65
24280;BME280;12395;42.808;23.408;2023-02-23T09:33:42;94829.31;;;9.86;74.35
24280;BME280;12395;42.808;23.408;2023-02-23T09:36:12;94820.97;;;9.89;74.70
24280;BME280;12395;42.808;23.408;2023-02-23T09:38:44;94823.38;;;10.03;74.90
24280;BME280;12395;42.808;23.408;2023-02-23T09:44:09;94841.28;;;10.34;73.41
24280;BME280;12395;42.808;23.408;2023-02-23T09:49:50;94821.06;;;10.53;73.15
24280;BME280;12395;42.808;23.408;2023-02-23T09:52:19;94812.09;;;10.60;72.09
24280;BME280;12395;42.808;23.408;2023-02-23T09:54:46;94819.56;;;10.70;70.55
24280;BME280;12395;42.808;23.408;2023-02-23T09:57:16;94825.69;;;10.77;70.88
24280;BME280;12395;42.808;23.408;2023-02-23T09:59:42;94823.72;;;10.97;71.28
24280;BME280;12395;42.808;23.408;2023-02-23T10:04:55;94832.72;;;11.34;68.68
24280;BME280;12395;42.808;23.408;2023-02-23T10:21:04;94814.00;;;12.09;65.94
24280;BME280;12395;42.808;23.408;2023-02-23T10:23:36;94804.72;;;12.18;65.64
24280;BME280;12395;42.808;23.408;2023-02-23T10:26:06;94811.97;;;12.29;64.70
24280;BME280;12395;42.808;23.408;2023-02-23T10:28:35;94809.31;;;12.48;64.50
24280;BME280;12395;42.808;23.408;2023-02-23T10:31:06;94796.78;;;12.55;63.86
24280;BME280;12395;42.808;23.408;2023-02-23T10:33:32;94802.88;;;12.73;63.50
24280;BME280;12395;42.808;23.408;2023-02-23T10:36:30;94796.81;;;12.84;62.77
24280;BME280;12395;42.808;23.408;2023-02-23T10:38:57;94791.09;;;12.99;61.94
24280;BME280;12395;42.808;23.408;2023-02-23T10:41:23;94793.63;;;13.12;60.86
24280;BME280;12395;42.808;23.408;2023-02-23T10:43:48;94780.59;;;13.22;61.20
24280;BME280;12395;42.808;23.408;2023-02-23T10:46:20;94771.16;;;13.38;60.20
24280;BME280;12395;42.808;23.408;2023-02-23T10:48:48;94775.34;;;13.45;59.27
24280;BME280;12395;42.808;23.408;2023-02-23T10:51:25;94781.75;;;13.67;58.51
24280;BME280;12395;42.808;23.408;2023-02-23T10:53:52;94774.94;;;13.60;57.22
24280;BME280;12395;42.808;23.408;2023-02-23T10:56:18;94767.38;;;13.57;56.87
24280;BME280;12395;42.808;23.408;2023-02-23T10:58:50;94771.25;;;13.72;56.55
24280;BME280;12395;42.808;23.408;2023-02-23T11:01:37;94764.06;;;13.84;56.83
24280;BME280;12395;42.808;23.408;2023-02-23T11:04:22;94767.78;;;14.07;56.43
24280;BME280;12395;42.808;23.408;2023-02-23T11:06:49;94768.72;;;14.24;55.35
24280;BME280;12395;42.808;23.408;2023-02-23T11:12:03;94747.19;;;14.37;54.02
24280;BME280;12395;42.808;23.408;2023-02-23T11:14:31;94743.94;;;14.35;54.23
24280;BME280;12395;42.808;23.408;2023-02-23T11:16:58;94750.63;;;14.49;53.79
24280;BME280;12395;42.808;23.408;2023-02-23T11:19:34;94756.97;;;14.59;53.04
24280;BME280;12395;42.808;23.408;2023-02-23T11:22:02;94746.28;;;14.71;53.61
24280;BME280;12395;42.808;23.408;2023-02-23T11:24:34;94745.78;;;14.86;52.73
24280;BME280;12395;42.808;23.408;2023-02-23T11:27:04;94735.63;;;14.99;51.43
24280;BME280;12395;42.808;23.408;2023-02-23T11:29:33;94741.94;;;15.10;50.38
24280;BME280;12395;42.808;23.408;2023-02-23T11:32:16;94743.91;;;15.14;50.65
24280;BME280;12395;42.808;23.408;2023-02-23T11:34:44;94738.78;;;15.24;50.62
24280;BME280;12395;42.808;23.408;2023-02-23T11:39:55;94725.78;;;15.44;49.80
24280;BME280;12395;42.808;23.408;2023-02-23T11:42:23;94730.41;;;15.66;49.04
24280;BME280;12395;42.808;23.408;2023-02-23T11:45:02;94732.34;;;15.87;48.64
24280;BME280;12395;42.808;23.408;2023-02-23T11:47:28;94724.34;;;16.03;47.62
24280;BME280;12395;42.808;23.408;2023-02-23T11:49:55;94728.38;;;16.23;46.25
24280;BME280;12395;42.808;23.408;2023-02-23T11:52:23;94712.38;;;16.28;46.22
24280;BME280;12395;42.808;23.408;2023-02-23T11:54:59;94721.09;;;16.56;45.63
24280;BME280;12395;42.808;23.408;2023-02-23T11:57:29;94715.41;;;16.74;44.51
24280;BME280;12395;42.808;23.408;2023-02-23T11:59:57;94698.13;;;16.82;43.54
24280;BME280;12395;42.808;23.408;2023-02-23T12:02:25;94710.13;;;17.01;43.36
24280;BME280;12395;42.808;23.408;2023-02-23T12:05:03;94699.00;;;17.14;44.14
24280;BME280;12395;42.808;23.408;2023-02-23T12:07:37;94702.69;;;17.35;43.68
24280;BME280;12395;42.808;23.408;2023-02-23T12:10:36;94706.03;;;17.47;42.60
24280;BME280;12395;42.808;23.408;2023-02-23T12:18:29;94686.94;;;17.12;41.83
24280;BME280;12395;42.808;23.408;2023-02-23T12:20:49;94695.22;;;17.10;41.99
24280;BME280;12395;42.808;23.408;2023-02-23T12:23:21;94693.25;;;17.01;41.17
24280;BME280;12395;42.808;23.408;2023-02-23T12:25:58;94680.88;;;16.94;41.69
24280;BME280;12395;42.808;23.408;2023-02-23T12:28:43;94692.84;;;16.87;41.48
24280;BME280;12395;42.808;23.408;2023-02-23T12:31:48;94691.75;;;16.88;41.93
24280;BME280;12395;42.808;23.408;2023-02-23T12:34:26;94682.38;;;16.85;41.89
24280;BME280;12395;42.808;23.408;2023-02-23T12:37:04;94695.38;;;16.77;41.52
24280;BME280;12395;42.808;23.408;2023-02-23T12:39:39;94682.34;;;16.80;42.18
24280;BME280;12395;42.808;23.408;2023-02-23T12:42:11;94686.72;;;16.91;41.50
24280;BME280;12395;42.808;23.408;2023-02-23T12:44:58;94688.16;;;16.99;42.03
24280;BME280;12395;42.808;23.408;2023-02-23T12:47:41;94689.13;;;17.15;42.17
24280;BME280;12395;42.808;23.408;2023-02-23T12:50:29;94684.41;;;17.27;41.59
24280;BME280;12395;42.808;23.408;2023-02-23T12:53:33;94693.06;;;17.39;41.29
24280;BME280;12395;42.808;23.408;2023-02-23T13:04:54;94673.34;;;17.45;40.64
24280;BME280;12395;42.808;23.408;2023-02-23T13:10:14;94683.38;;;17.33;43.08
24280;BME280;12395;42.808;23.408;2023-02-23T13:21:12;94690.94;;;16.61;45.70
24280;BME280;12395;42.808;23.408;2023-02-23T13:26:30;94676.41;;;16.35;46.55
24280;BME280;12395;42.808;23.408;2023-02-23T13:31:37;94676.41;;;15.97;47.79
24280;BME280;12395;42.808;23.408;2023-02-23T13:34:08;94685.56;;;16.01;47.91
24280;BME280;12395;42.808;23.408;2023-02-23T13:36:35;94669.88;;;15.88;48.01
24280;BME280;12395;42.808;23.408;2023-02-23T13:48:41;94691.91;;;15.62;49.17
24280;BME280;12395;42.808;23.408;2023-02-23T13:54:05;94683.28;;;15.26;50.63
24280;BME280;12395;42.808;23.408;2023-02-23T13:56:41;94686.75;;;15.27;50.68
24280;BME280;12395;42.808;23.408;2023-02-23T13:59:15;94694.09;;;15.03;51.12
24280;BME280;12395;42.808;23.408;2023-02-23T14:01:48;94691.47;;;14.92;51.81
24280;BME280;12395;42.808;23.408;2023-02-23T14:04:20;94682.50;;;14.69;52.74
24280;BME280;12395;42.808;23.408;2023-02-23T14:23:47;94704.19;;;13.75;56.25
24280;BME280;12395;42.808;23.408;2023-02-23T14:26:15;94689.63;;;13.66;56.63
24280;BME280;12395;42.808;23.408;2023-02-23T14:28:47;94697.72;;;13.60;57.05
24280;BME280;12395;42.808;23.408;2023-02-23T14:31:33;94694.56;;;13.40;57.76
24280;BME280;12395;42.808;23.408;2023-02-23T14:33:59;94698.25;;;13.39;58.09
24280;BME280;12395;42.808;23.408;2023-02-23T14:36:34;94705.66;;;13.25;58.66
24280;BME280;12395;42.808;23.408;2023-02-23T14:39:05;94701.84;;;13.03;59.44
24280;BME280;12395;42.808;23.408;2023-02-23T14:41:42;94707.28;;;12.96;59.84
24280;BME280;12395;42.808;23.408;2023-02-23T14:44:20;94698.97;;;12.75;60.66
24280;BME280;12395;42.808;23.408;2023-02-23T14:46:53;94702.44;;;12.64;60.89
24280;BME280;12395;42.808;23.408;2023-02-23T14:49:22;94717.56;;;12.63;61.33
24280;BME280;12395;42.808;23.408;2023-02-23T14:52:05;94716.31;;;12.48;61.91
24280;BME280;12395;42.808;23.408;2023-02-23T14:54:34;94715.22;;;12.37;62.36
24280;BME280;12395;42.808;23.408;2023-02-23T14:57:05;94719.00;;;12.29;62.66
24280;BME280;12395;42.808;23.408;2023-02-23T14:59:37;94712.72;;;12.24;62.88
24280;BME280;12395;42.808;23.408;2023-02-23T15:02:16;94725.84;;;12.19;62.99
24280;BME280;12395;42.808;23.408;2023-02-23T15:04:42;94730.03;;;12.08;63.79
24280;BME280;12395;42.808;23.408;2023-02-23T15:07:14;94734.16;;;12.04;63.87
24280;BME280;12395;42.808;23.408;2023-02-23T15:09:43;94721.78;;;11.98;63.94
24280;BME280;12395;42.808;23.408;2023-02-23T15:12:17;94730.84;;;11.91;64.22